sensor_id;sensor_type;location;lat;lon;timestamp;temperature;humidity
22145;DHT22;11238;48.730;11.566;2023-02-12T00:00:38;4.10;99.90
22145;DHT22;11238;48.730;11.566;2023-02-12T00:03:04;4.10;99.90
22145;DHT22;11238;48.730;11.566;2023-02-12T00:05:30;4.10;99.90
22145;DHT22;11238;48.730;11.566;2023-02-12T00:07:57;4.10;99.90
22145;DHT22;11238;48.730;11.566;2023-02-12T00:10:23;4.10;99.90
22145;DHT22;11238;48.730;11.566;2023-02-12T00:12:51;4.10;99.90
22145;DHT22;11238;48.730;11.566;2023-02-12T00:15:18;4.10;99.90
22145;DHT22;11238;48.730;11.566;2023-02-12T00:17:43;4.00;99.90
22145;DHT22;11238;48.730;11.566;2023-02-12T00:20:09;4.00;99.90
22145;DHT22;11238;48.730;11.566;2023-02-12T00:22:35;4.00;99.90
22145;DHT22;11238;48.730;11.566;2023-02-12T00:25:01;4.00;99.90
22145;DHT22;11238;48.730;11.566;2023-02-12T00:27:27;4.00;99.90
22145;DHT22;11238;48.730;11.566;2023-02-12T00:29:53;4.00;99.90
22145;DHT22;11238;48.730;11.566;2023-02-12T00:32:19;3.90;99.90
22145;DHT22;11238;48.730;11.566;2023-02-12T00:34:46;3.90;99.90
22145;DHT22;11238;48.730;11.566;2023-02-12T00:37:14;3.90;99.90
22145;DHT22;11238;48.730;11.566;2023-02-12T00:39:40;4.00;99.90
22145;DHT22;11238;48.730;11.566;2023-02-12T00:42:09;4.00;99.90
22145;DHT22;11238;48.730;11.566;2023-02-12T00:44:35;4.00;99.90
22145;DHT22;11238;48.730;11.566;2023-02-12T00:47:05;3.90;99.90
22145;DHT22;11238;48.730;11.566;2023-02-12T00:49:31;4.00;99.90
22145;DHT22;11238;48.730;11.566;2023-02-12T00:52:04;3.90;99.90
22145;DHT22;11238;48.730;11.566;2023-02-12T00:54:31;4.00;99.90
22145;DHT22;11238;48.730;11.566;2023-02-12T00:56:57;4.00;99.90
22145;DHT22;11238;48.730;11.566;2023-02-12T00:59:28;4.10;99.90
22145;DHT22;11238;48.730;11.566;2023-02-12T01:01:55;4.10;99.90
22145;DHT22;11238;48.730;11.566;2023-02-12T01:04:23;4.10;99.90
22145;DHT22;11238;48.730;11.566;2023-02-12T01:06:48;4.10;99.90
22145;DHT22;11238;48.730;11.566;2023-02-12T01:09:14;4.10;99.90
22145;DHT22;11238;48.730;11.566;2023-02-12T01:11:41;4.10;99.90
22145;DHT22;11238;48.730;11.566;2023-02-12T01:14:07;4.10;99.90
22145;DHT22;11238;48.730;11.566;2023-02-12T01:16:33;4.10;99.90
22145;DHT22;11238;48.730;11.566;2023-02-12T01:19:01;4.10;99.90
22145;DHT22;11238;48.730;11.566;2023-02-12T01:21:30;4.10;99.90
22145;DHT22;11238;48.730;11.566;2023-02-12T01:24:01;4.10;99.90
22145;DHT22;11238;48.730;11.566;2023-02-12T01:26:28;4.10;99.90
22145;DHT22;11238;48.730;11.566;2023-02-12T01:28:59;4.10;99.90
22145;DHT22;11238;48.730;11.566;2023-02-12T01:31:29;4.10;99.90
22145;DHT22;11238;48.730;11.566;2023-02-12T01:33:59;4.10;99.90
22145;DHT22;11238;48.730;11.566;2023-02-12T01:36:27;4.20;99.90
22145;DHT22;11238;48.730;11.566;2023-02-12T01:38:56;4.10;99.90
22145;DHT22;11238;48.730;11.566;2023-02-12T01:41:45;4.10;99.90
22145;DHT22;11238;48.730;11.566;2023-02-12T01:46:42;4.20;99.90
22145;DHT22;11238;48.730;11.566;2023-02-12T01:49:23;4.20;99.90
22145;DHT22;11238;48.730;11.566;2023-02-12T01:52:00;4.20;99.90
22145;DHT22;11238;48.730;11.566;2023-02-12T01:54:27;4.20;99.90
22145;DHT22;11238;48.730;11.566;2023-02-12T01:56:54;4.10;99.90
22145;DHT22;11238;48.730;11.566;2023-02-12T01:59:20;3.90;99.90
22145;DHT22;11238;48.730;11.566;2023-02-12T02:01:46;3.90;99.90
22145;DHT22;11238;48.730;11.566;2023-02-12T02:04:16;3.90;99.90
22145;DHT22;11238;48.730;11.566;2023-02-12T02:07:07;4.00;99.90
22145;DHT22;11238;48.730;11.566;2023-02-12T02:09:36;4.00;99.90
22145;DHT22;11238;48.730;11.566;2023-02-12T02:12:03;3.90;99.90
22145;DHT22;11238;48.730;11.566;2023-02-12T02:14:49;3.80;99.90
22145;DHT22;11238;48.730;11.566;2023-02-12T02:23:31;3.70;99.90
22145;DHT22;11238;48.730;11.566;2023-02-12T02:26:21;3.80;99.90
22145;DHT22;11238;48.730;11.566;2023-02-12T02:28:58;3.80;99.90
22145;DHT22;11238;48.730;11.566;2023-02-12T02:42:37;3.60;99.90
22145;DHT22;11238;48.730;11.566;2023-02-12T02:45:17;3.60;99.90
22145;DHT22;11238;48.730;11.566;2023-02-12T02:47:47;3.60;99.90
22145;DHT22;11238;48.730;11.566;2023-02-12T02:50:17;3.60;99.90
22145;DHT22;11238;48.730;11.566;2023-02-12T02:52:59;3.50;99.90
22145;DHT22;11238;48.730;11.566;2023-02-12T02:55:34;3.50;99.90
22145;DHT22;11238;48.730;11.566;2023-02-12T02:58:16;3.50;99.90
22145;DHT22;11238;48.730;11.566;2023-02-12T03:01:00;3.50;99.90
22145;DHT22;11238;48.730;11.566;2023-02-12T03:06:04;3.50;99.90
22145;DHT22;11238;48.730;11.566;2023-02-12T03:08:46;3.50;99.90
22145;DHT22;11238;48.730;11.566;2023-02-12T03:11:21;3.60;99.90
22145;DHT22;11238;48.730;11.566;2023-02-12T03:13:53;3.50;99.90
22145;DHT22;11238;48.730;11.566;2023-02-12T03:16:31;3.60;99.90
22145;DHT22;11238;48.730;11.566;2023-02-12T03:21:32;3.60;99.90
22145;DHT22;11238;48.730;11.566;2023-02-12T03:24:13;3.70;99.90
22145;DHT22;11238;48.730;11.566;2023-02-12T03:26:50;3.60;99.90
22145;DHT22;11238;48.730;11.566;2023-02-12T03:29:18;3.60;99.90
22145;DHT22;11238;48.730;11.566;2023-02-12T03:34:34;3.60;99.90
22145;DHT22;11238;48.730;11.566;2023-02-12T03:37:09;3.70;99.90
22145;DHT22;11238;48.730;11.566;2023-02-12T03:39:44;3.60;99.90
22145;DHT22;11238;48.730;11.566;2023-02-12T03:42:22;3.60;99.90
22145;DHT22;11238;48.730;11.566;2023-02-12T03:44:55;3.60;99.90
22145;DHT22;11238;48.730;11.566;2023-02-12T03:47:45;3.50;99.90
22145;DHT22;11238;48.730;11.566;2023-02-12T03:53:18;3.40;99.90
22145;DHT22;11238;48.730;11.566;2023-02-12T03:55:47;3.40;99.90
22145;DHT22;11238;48.730;11.566;2023-02-12T03:58:20;3.40;99.90
22145;DHT22;11238;48.730;11.566;2023-02-12T04:00:47;3.50;99.90
22145;DHT22;11238;48.730;11.566;2023-02-12T04:03:13;3.50;99.90
22145;DHT22;11238;48.730;11.566;2023-02-12T04:05:39;3.60;99.90
22145;DHT22;11238;48.730;11.566;2023-02-12T04:08:07;3.60;99.90
22145;DHT22;11238;48.730;11.566;2023-02-12T04:16:48;3.70;99.90
22145;DHT22;11238;48.730;11.566;2023-02-12T04:19:28;3.60;99.90
22145;DHT22;11238;48.730;11.566;2023-02-12T04:25:06;3.70;99.90
22145;DHT22;11238;48.730;11.566;2023-02-12T04:30:31;3.80;99.90
22145;DHT22;11238;48.730;11.566;2023-02-12T04:33:01;3.80;99.90
22145;DHT22;11238;48.730;11.566;2023-02-12T04:35:35;3.80;99.90
22145;DHT22;11238;48.730;11.566;2023-02-12T04:38:21;3.70;99.90
22145;DHT22;11238;48.730;11.566;2023-02-12T04:40:48;3.80;99.90
22145;DHT22;11238;48.730;11.566;2023-02-12T04:43:28;3.70;99.90
22145;DHT22;11238;48.730;11.566;2023-02-12T04:45:55;3.70;99.90
22145;DHT22;11238;48.730;11.566;2023-02-12T04:48:21;3.60;99.90
22145;DHT22;11238;48.730;11.566;2023-02-12T04:50:47;3.50;99.90
22145;DHT22;11238;48.730;11.566;2023-02-12T04:53:13;3.40;99.90
22145;DHT22;11238;48.730;11.566;2023-02-12T04:55:39;3.40;99.90
22145;DHT22;11238;48.730;11.566;2023-02-12T04:58:05;3.30;99.90
22145;DHT22;11238;48.730;11.566;2023-02-12T05:00:31;3.40;99.90
22145;DHT22;11238;48.730;11.566;2023-02-12T05:02:57;3.40;99.90
22145;DHT22;11238;48.730;11.566;2023-02-12T05:05:23;3.40;99.90
22145;DHT22;11238;48.730;11.566;2023-02-12T05:07:49;3.50;99.90
22145;DHT22;11238;48.730;11.566;2023-02-12T05:10:16;3.50;99.90
22145;DHT22;11238;48.730;11.566;2023-02-12T05:12:42;3.50;99.90
22145;DHT22;11238;48.730;11.566;2023-02-12T05:15:08;3.50;99.90
22145;DHT22;11238;48.730;11.566;2023-02-12T05:17:35;3.50;99.90
22145;DHT22;11238;48.730;11.566;2023-02-12T05:20:01;3.50;99.90
22145;DHT22;11238;48.730;11.566;2023-02-12T05:22:27;3.50;99.90
22145;DHT22;11238;48.730;11.566;2023-02-12T05:24:53;3.50;99.90
22145;DHT22;11238;48.730;11.566;2023-02-12T05:27:19;3.50;99.90
22145;DHT22;11238;48.730;11.566;2023-02-12T05:29:45;3.60;99.90
22145;DHT22;11238;48.730;11.566;2023-02-12T05:32:11;3.50;99.90
22145;DHT22;11238;48.730;11.566;2023-02-12T05:34:36;3.50;99.90
22145;DHT22;11238;48.730;11.566;2023-02-12T05:37:02;3.50;99.90
22145;DHT22;11238;48.730;11.566;2023-02-12T05:39:28;3.50;99.90
22145;DHT22;11238;48.730;11.566;2023-02-12T05:41:54;3.50;99.90
22145;DHT22;11238;48.730;11.566;2023-02-12T05:44:20;3.50;99.90
22145;DHT22;11238;48.730;11.566;2023-02-12T05:46:49;3.60;99.90
22145;DHT22;11238;48.730;11.566;2023-02-12T05:49:15;3.60;99.90
22145;DHT22;11238;48.730;11.566;2023-02-12T05:51:41;3.70;99.90
22145;DHT22;11238;48.730;11.566;2023-02-12T05:54:08;3.70;99.90
22145;DHT22;11238;48.730;11.566;2023-02-12T05:56:37;3.70;99.90
22145;DHT22;11238;48.730;11.566;2023-02-12T05:59:10;3.70;99.90
22145;DHT22;11238;48.730;11.566;2023-02-12T06:01:39;3.70;99.90
22145;DHT22;11238;48.730;11.566;2023-02-12T06:04:09;3.70;99.90
22145;DHT22;11238;48.730;11.566;2023-02-12T06:06:37;3.70;99.90
22145;DHT22;11238;48.730;11.566;2023-02-12T06:09:07;3.80;99.90
22145;DHT22;11238;48.730;11.566;2023-02-12T06:11:33;3.80;99.90
22145;DHT22;11238;48.730;11.566;2023-02-12T06:14:04;3.80;99.90
22145;DHT22;11238;48.730;11.566;2023-02-12T06:16:31;3.80;99.90
22145;DHT22;11238;48.730;11.566;2023-02-12T06:18:59;3.80;99.90
22145;DHT22;11238;48.730;11.566;2023-02-12T06:21:26;3.70;99.90
22145;DHT22;11238;48.730;11.566;2023-02-12T06:23:53;3.70;99.90
22145;DHT22;11238;48.730;11.566;2023-02-12T06:26:19;3.60;99.90
22145;DHT22;11238;48.730;11.566;2023-02-12T06:28:45;3.60;99.90
22145;DHT22;11238;48.730;11.566;2023-02-12T06:31:26;3.70;99.90
22145;DHT22;11238;48.730;11.566;2023-02-12T06:33:54;3.70;99.90
22145;DHT22;11238;48.730;11.566;2023-02-12T06:36:21;3.70;99.90
22145;DHT22;11238;48.730;11.566;2023-02-12T06:38:47;3.70;99.90
22145;DHT22;11238;48.730;11.566;2023-02-12T06:41:14;3.60;99.90
22145;DHT22;11238;48.730;11.566;2023-02-12T06:43:39;3.70;99.90
22145;DHT22;11238;48.730;11.566;2023-02-12T06:46:06;3.70;99.90
22145;DHT22;11238;48.730;11.566;2023-02-12T06:48:33;3.80;99.90
22145;DHT22;11238;48.730;11.566;2023-02-12T06:51:14;3.80;99.90
22145;DHT22;11238;48.730;11.566;2023-02-12T06:53:41;3.80;99.90
22145;DHT22;11238;48.730;11.566;2023-02-12T06:56:09;3.80;99.90
22145;DHT22;11238;48.730;11.566;2023-02-12T06:58:37;3.80;99.90
22145;DHT22;11238;48.730;11.566;2023-02-12T07:01:15;3.70;99.90
22145;DHT22;11238;48.730;11.566;2023-02-12T07:03:46;3.70;99.90
22145;DHT22;11238;48.730;11.566;2023-02-12T07:06:13;3.60;99.90
22145;DHT22;11238;48.730;11.566;2023-02-12T07:08:39;3.50;99.90
22145;DHT22;11238;48.730;11.566;2023-02-12T07:11:05;3.50;99.90
22145;DHT22;11238;48.730;11.566;2023-02-12T07:13:31;3.50;99.90
22145;DHT22;11238;48.730;11.566;2023-02-12T07:16:07;3.50;99.90
22145;DHT22;11238;48.730;11.566;2023-02-12T07:18:56;3.50;99.90
22145;DHT22;11238;48.730;11.566;2023-02-12T07:21:25;3.50;99.90
22145;DHT22;11238;48.730;11.566;2023-02-12T07:23:52;3.50;99.90
22145;DHT22;11238;48.730;11.566;2023-02-12T07:26:19;3.50;99.90
22145;DHT22;11238;48.730;11.566;2023-02-12T07:28:45;3.60;99.90
22145;DHT22;11238;48.730;11.566;2023-02-12T07:31:19;3.60;99.90
22145;DHT22;11238;48.730;11.566;2023-02-12T07:33:48;3.60;99.90
22145;DHT22;11238;48.730;11.566;2023-02-12T07:36:17;3.60;99.90
22145;DHT22;11238;48.730;11.566;2023-02-12T07:38:43;3.60;99.90
22145;DHT22;11238;48.730;11.566;2023-02-12T07:41:15;3.50;99.90
22145;DHT22;11238;48.730;11.566;2023-02-12T07:43:42;3.60;99.90
22145;DHT22;11238;48.730;11.566;2023-02-12T07:46:14;3.70;99.90
22145;DHT22;11238;48.730;11.566;2023-02-12T07:48:42;3.80;99.90
22145;DHT22;11238;48.730;11.566;2023-02-12T07:54:02;3.90;99.90
22145;DHT22;11238;48.730;11.566;2023-02-12T07:56:31;3.90;99.90
22145;DHT22;11238;48.730;11.566;2023-02-12T07:59:06;4.00;99.90
22145;DHT22;11238;48.730;11.566;2023-02-12T08:01:39;4.10;99.90
22145;DHT22;11238;48.730;11.566;2023-02-12T08:04:10;4.20;99.90
22145;DHT22;11238;48.730;11.566;2023-02-12T08:06:42;4.30;99.90
22145;DHT22;11238;48.730;11.566;2023-02-12T08:09:11;4.30;99.90
22145;DHT22;11238;48.730;11.566;2023-02-12T08:11:39;4.30;99.90
22145;DHT22;11238;48.730;11.566;2023-02-12T08:14:05;4.30;99.90
22145;DHT22;11238;48.730;11.566;2023-02-12T08:16:35;4.40;99.90
22145;DHT22;11238;48.730;11.566;2023-02-12T08:19:05;4.40;99.90
22145;DHT22;11238;48.730;11.566;2023-02-12T08:21:32;4.40;99.90
22145;DHT22;11238;48.730;11.566;2023-02-12T08:24:00;4.40;99.90
22145;DHT22;11238;48.730;11.566;2023-02-12T08:26:34;4.40;99.90
22145;DHT22;11238;48.730;11.566;2023-02-12T08:29:03;4.40;99.90
22145;DHT22;11238;48.730;11.566;2023-02-12T08:31:34;4.40;99.90
22145;DHT22;11238;48.730;11.566;2023-02-12T08:34:02;4.40;99.90
22145;DHT22;11238;48.730;11.566;2023-02-12T08:36:37;4.40;99.90
22145;DHT22;11238;48.730;11.566;2023-02-12T08:39:04;4.30;99.90
22145;DHT22;11238;48.730;11.566;2023-02-12T08:41:30;4.10;99.90
22145;DHT22;11238;48.730;11.566;2023-02-12T08:43:58;4.10;99.90
22145;DHT22;11238;48.730;11.566;2023-02-12T08:46:32;4.10;99.90
22145;DHT22;11238;48.730;11.566;2023-02-12T08:49:07;4.10;99.90
22145;DHT22;11238;48.730;11.566;2023-02-12T08:51:39;4.00;99.90
22145;DHT22;11238;48.730;11.566;2023-02-12T08:54:07;3.90;99.90
22145;DHT22;11238;48.730;11.566;2023-02-12T08:56:34;4.00;99.90
22145;DHT22;11238;48.730;11.566;2023-02-12T08:59:02;4.00;99.90
22145;DHT22;11238;48.730;11.566;2023-02-12T09:01:30;4.00;99.90
22145;DHT22;11238;48.730;11.566;2023-02-12T09:03:58;4.10;99.90
22145;DHT22;11238;48.730;11.566;2023-02-12T09:06:25;4.00;99.90
22145;DHT22;11238;48.730;11.566;2023-02-12T09:08:52;4.10;99.90
22145;DHT22;11238;48.730;11.566;2023-02-12T09:11:20;4.20;99.90
22145;DHT22;11238;48.730;11.566;2023-02-12T09:13:49;4.30;99.90
22145;DHT22;11238;48.730;11.566;2023-02-12T09:16:15;4.30;99.90
22145;DHT22;11238;48.730;11.566;2023-02-12T09:18:41;4.40;99.90
22145;DHT22;11238;48.730;11.566;2023-02-12T09:21:12;4.50;99.90
22145;DHT22;11238;48.730;11.566;2023-02-12T09:23:39;4.50;99.90
22145;DHT22;11238;48.730;11.566;2023-02-12T09:26:07;4.70;99.90
22145;DHT22;11238;48.730;11.566;2023-02-12T09:28:34;4.70;99.90
22145;DHT22;11238;48.730;11.566;2023-02-12T09:31:12;4.70;99.90
22145;DHT22;11238;48.730;11.566;2023-02-12T09:33:39;4.80;99.90
22145;DHT22;11238;48.730;11.566;2023-02-12T09:36:27;4.90;99.90
22145;DHT22;11238;48.730;11.566;2023-02-12T09:38:53;5.00;99.90
22145;DHT22;11238;48.730;11.566;2023-02-12T09:41:46;4.90;99.90
22145;DHT22;11238;48.730;11.566;2023-02-12T09:44:32;5.00;99.90
22145;DHT22;11238;48.730;11.566;2023-02-12T09:47:07;4.90;99.90
22145;DHT22;11238;48.730;11.566;2023-02-12T09:49:59;4.90;99.90
22145;DHT22;11238;48.730;11.566;2023-02-12T09:52:27;5.00;99.90
22145;DHT22;11238;48.730;11.566;2023-02-12T09:55:32;5.00;99.90
22145;DHT22;11238;48.730;11.566;2023-02-12T09:58:05;5.10;99.90
22145;DHT22;11238;48.730;11.566;2023-02-12T10:00:35;5.10;99.90
22145;DHT22;11238;48.730;11.566;2023-02-12T10:03:02;5.30;99.90
22145;DHT22;11238;48.730;11.566;2023-02-12T10:05:49;5.50;99.90
22145;DHT22;11238;48.730;11.566;2023-02-12T10:17:30;5.40;99.90
22145;DHT22;11238;48.730;11.566;2023-02-12T10:23:01;5.50;99.90
22145;DHT22;11238;48.730;11.566;2023-02-12T10:26:03;5.50;99.90
22145;DHT22;11238;48.730;11.566;2023-02-12T10:28:39;5.40;99.90
22145;DHT22;11238;48.730;11.566;2023-02-12T10:31:13;5.40;99.90
22145;DHT22;11238;48.730;11.566;2023-02-12T10:33:45;5.50;99.90
22145;DHT22;11238;48.730;11.566;2023-02-12T10:36:42;5.50;99.90
22145;DHT22;11238;48.730;11.566;2023-02-12T10:41:46;5.60;99.90
22145;DHT22;11238;48.730;11.566;2023-02-12T10:44:13;5.50;99.90
22145;DHT22;11238;48.730;11.566;2023-02-12T10:46:39;5.40;99.90
22145;DHT22;11238;48.730;11.566;2023-02-12T10:49:05;5.50;99.90
22145;DHT22;11238;48.730;11.566;2023-02-12T10:54:43;5.30;99.90
22145;DHT22;11238;48.730;11.566;2023-02-12T10:57:21;5.20;99.90
22145;DHT22;11238;48.730;11.566;2023-02-12T10:59:53;5.20;99.90
22145;DHT22;11238;48.730;11.566;2023-02-12T11:02:29;5.40;99.90
22145;DHT22;11238;48.730;11.566;2023-02-12T11:04:57;5.40;99.90
22145;DHT22;11238;48.730;11.566;2023-02-12T11:07:26;5.40;99.90
22145;DHT22;11238;48.730;11.566;2023-02-12T11:09:54;5.40;99.90
22145;DHT22;11238;48.730;11.566;2023-02-12T11:12:47;5.40;99.90
22145;DHT22;11238;48.730;11.566;2023-02-12T11:15:19;5.50;99.90
22145;DHT22;11238;48.730;11.566;2023-02-12T11:18:03;5.50;99.90
22145;DHT22;11238;48.730;11.566;2023-02-12T11:23:40;5.70;99.90
22145;DHT22;11238;48.730;11.566;2023-02-12T11:28:34;5.70;99.90
22145;DHT22;11238;48.730;11.566;2023-02-12T11:31:17;5.80;99.90
22145;DHT22;11238;48.730;11.566;2023-02-12T11:33:45;5.90;99.90
22145;DHT22;11238;48.730;11.566;2023-02-12T11:36:23;5.90;99.90
22145;DHT22;11238;48.730;11.566;2023-02-12T11:38:54;5.90;99.90
22145;DHT22;11238;48.730;11.566;2023-02-12T11:41:40;6.00;99.90
22145;DHT22;11238;48.730;11.566;2023-02-12T11:44:12;6.00;99.90
22145;DHT22;11238;48.730;11.566;2023-02-12T11:46:47;6.10;99.90
22145;DHT22;11238;48.730;11.566;2023-02-12T11:49:23;6.00;99.90
22145;DHT22;11238;48.730;11.566;2023-02-12T11:51:50;6.10;99.90
22145;DHT22;11238;48.730;11.566;2023-02-12T11:54:29;6.10;99.90
22145;DHT22;11238;48.730;11.566;2023-02-12T11:56:55;6.10;99.90
22145;DHT22;11238;48.730;11.566;2023-02-12T11:59:41;6.10;99.90
22145;DHT22;11238;48.730;11.566;2023-02-12T12:04:38;6.10;99.90
22145;DHT22;11238;48.730;11.566;2023-02-12T12:07:13;5.90;99.90
22145;DHT22;11238;48.730;11.566;2023-02-12T12:09:54;5.70;99.90
22145;DHT22;11238;48.730;11.566;2023-02-12T12:12:29;5.80;99.90
22145;DHT22;11238;48.730;11.566;2023-02-12T12:15:05;5.90;99.90
22145;DHT22;11238;48.730;11.566;2023-02-12T12:18:20;5.90;99.90
22145;DHT22;11238;48.730;11.566;2023-02-12T12:24:07;5.90;99.90
22145;DHT22;11238;48.730;11.566;2023-02-12T12:26:34;5.90;99.90
22145;DHT22;11238;48.730;11.566;2023-02-12T12:29:19;5.80;99.90
22145;DHT22;11238;48.730;11.566;2023-02-12T12:31:51;5.90;99.90
22145;DHT22;11238;48.730;11.566;2023-02-12T12:34:23;5.90;99.90
22145;DHT22;11238;48.730;11.566;2023-02-12T12:42:21;5.90;99.90
22145;DHT22;11238;48.730;11.566;2023-02-12T12:45:18;5.80;99.90
22145;DHT22;11238;48.730;11.566;2023-02-12T12:48:12;5.80;99.90
22145;DHT22;11238;48.730;11.566;2023-02-12T13:05:18;6.10;99.90
22145;DHT22;11238;48.730;11.566;2023-02-12T13:10:47;6.20;99.90
22145;DHT22;11238;48.730;11.566;2023-02-12T13:13:25;6.40;99.90
22145;DHT22;11238;48.730;11.566;2023-02-12T13:16:15;6.50;99.90
22145;DHT22;11238;48.730;11.566;2023-02-12T13:21:56;6.40;99.90
22145;DHT22;11238;48.730;11.566;2023-02-12T13:24:42;6.20;99.90
22145;DHT22;11238;48.730;11.566;2023-02-12T13:27:17;6.30;99.90
22145;DHT22;11238;48.730;11.566;2023-02-12T13:29:46;6.40;99.90
22145;DHT22;11238;48.730;11.566;2023-02-12T13:32:28;6.40;99.90
22145;DHT22;11238;48.730;11.566;2023-02-12T13:34:56;6.50;99.90
22145;DHT22;11238;48.730;11.566;2023-02-12T13:37:36;6.60;99.90
22145;DHT22;11238;48.730;11.566;2023-02-12T13:40:06;6.50;99.90
22145;DHT22;11238;48.730;11.566;2023-02-12T13:50:41;6.40;99.90
22145;DHT22;11238;48.730;11.566;2023-02-12T13:53:30;6.50;99.90
22145;DHT22;11238;48.730;11.566;2023-02-12T13:58:39;6.60;99.90
22145;DHT22;11238;48.730;11.566;2023-02-12T14:01:12;6.60;99.90
22145;DHT22;11238;48.730;11.566;2023-02-12T14:07:03;6.70;99.90
22145;DHT22;11238;48.730;11.566;2023-02-12T14:15:21;6.40;99.90
22145;DHT22;11238;48.730;11.566;2023-02-12T14:18:06;6.40;99.90
22145;DHT22;11238;48.730;11.566;2023-02-12T14:20:34;6.50;99.90
22145;DHT22;11238;48.730;11.566;2023-02-12T14:23:25;6.50;99.90
22145;DHT22;11238;48.730;11.566;2023-02-12T14:26:06;6.60;99.90
22145;DHT22;11238;48.730;11.566;2023-02-12T14:28:56;6.70;99.90
22145;DHT22;11238;48.730;11.566;2023-02-12T14:31:33;6.60;99.90
22145;DHT22;11238;48.730;11.566;2023-02-12T14:36:37;6.80;99.90
22145;DHT22;11238;48.730;11.566;2023-02-12T14:39:26;6.90;99.90
22145;DHT22;11238;48.730;11.566;2023-02-12T14:47:02;7.10;99.90
22145;DHT22;11238;48.730;11.566;2023-02-12T14:49:46;7.10;99.90
22145;DHT22;11238;48.730;11.566;2023-02-12T14:52:21;7.20;99.90
22145;DHT22;11238;48.730;11.566;2023-02-12T14:55:00;7.20;99.90
22145;DHT22;11238;48.730;11.566;2023-02-12T14:57:31;7.30;99.90
22145;DHT22;11238;48.730;11.566;2023-02-12T15:00:27;7.30;99.90
22145;DHT22;11238;48.730;11.566;2023-02-12T15:05:52;7.30;99.90
22145;DHT22;11238;48.730;11.566;2023-02-12T15:08:42;7.40;99.90
22145;DHT22;11238;48.730;11.566;2023-02-12T15:20:59;7.40;99.90
22145;DHT22;11238;48.730;11.566;2023-02-12T15:24:19;7.30;99.90
22145;DHT22;11238;48.730;11.566;2023-02-12T15:27:04;7.30;99.90
22145;DHT22;11238;48.730;11.566;2023-02-12T15:29:45;7.20;99.90
22145;DHT22;11238;48.730;11.566;2023-02-12T15:32:21;7.20;99.90
22145;DHT22;11238;48.730;11.566;2023-02-12T15:34:50;7.20;99.90
22145;DHT22;11238;48.730;11.566;2023-02-12T15:37:24;7.20;99.90
22145;DHT22;11238;48.730;11.566;2023-02-12T15:39:52;7.10;99.90
22145;DHT22;11238;48.730;11.566;2023-02-12T15:42:34;7.20;99.90
22145;DHT22;11238;48.730;11.566;2023-02-12T15:47:43;7.00;99.90
22145;DHT22;11238;48.730;11.566;2023-02-12T15:50:14;7.00;99.90
22145;DHT22;11238;48.730;11.566;2023-02-12T15:52:43;7.00;99.90
22145;DHT22;11238;48.730;11.566;2023-02-12T15:55:19;6.90;99.90
22145;DHT22;11238;48.730;11.566;2023-02-12T15:57:58;6.90;99.90
22145;DHT22;11238;48.730;11.566;2023-02-12T16:00:53;6.80;99.90
22145;DHT22;11238;48.730;11.566;2023-02-12T16:03:27;6.70;99.90
22145;DHT22;11238;48.730;11.566;2023-02-12T16:06:15;6.80;99.90
22145;DHT22;11238;48.730;11.566;2023-02-12T16:08:44;6.70;99.90
22145;DHT22;11238;48.730;11.566;2023-02-12T16:11:12;6.70;99.90
22145;DHT22;11238;48.730;11.566;2023-02-12T16:13:47;6.70;99.90
22145;DHT22;11238;48.730;11.566;2023-02-12T16:16:43;6.60;99.90
22145;DHT22;11238;48.730;11.566;2023-02-12T16:19:30;6.50;99.90
22145;DHT22;11238;48.730;11.566;2023-02-12T16:24:53;6.40;99.90
22145;DHT22;11238;48.730;11.566;2023-02-12T16:27:21;6.30;99.90
22145;DHT22;11238;48.730;11.566;2023-02-12T16:29:51;6.20;99.90
22145;DHT22;11238;48.730;11.566;2023-02-12T16:35:02;6.10;99.90
22145;DHT22;11238;48.730;11.566;2023-02-12T16:40:22;5.90;99.90
22145;DHT22;11238;48.730;11.566;2023-02-12T16:47:56;5.70;99.90
22145;DHT22;11238;48.730;11.566;2023-02-12T16:50:26;5.70;99.90
22145;DHT22;11238;48.730;11.566;2023-02-12T16:53:37;5.60;99.90
22145;DHT22;11238;48.730;11.566;2023-02-12T16:56:13;5.40;99.90
22145;DHT22;11238;48.730;11.566;2023-02-12T16:58:41;5.40;99.90
22145;DHT22;11238;48.730;11.566;2023-02-12T17:01:06;5.30;99.90
22145;DHT22;11238;48.730;11.566;2023-02-12T17:03:33;5.20;99.90
22145;DHT22;11238;48.730;11.566;2023-02-12T17:05:59;5.10;99.90
22145;DHT22;11238;48.730;11.566;2023-02-12T17:08:25;5.10;99.90
22145;DHT22;11238;48.730;11.566;2023-02-12T17:10:51;5.00;99.90
22145;DHT22;11238;48.730;11.566;2023-02-12T17:13:18;4.90;99.90
22145;DHT22;11238;48.730;11.566;2023-02-12T17:15:56;4.90;99.90
22145;DHT22;11238;48.730;11.566;2023-02-12T17:18:23;4.80;99.90
22145;DHT22;11238;48.730;11.566;2023-02-12T17:20:55;4.80;99.90
22145;DHT22;11238;48.730;11.566;2023-02-12T17:23:22;4.70;99.90
22145;DHT22;11238;48.730;11.566;2023-02-12T17:25:48;4.60;99.90
22145;DHT22;11238;48.730;11.566;2023-02-12T17:28:14;4.60;99.90
22145;DHT22;11238;48.730;11.566;2023-02-12T17:30:41;4.60;99.90
22145;DHT22;11238;48.730;11.566;2023-02-12T17:33:07;4.50;99.90
22145;DHT22;11238;48.730;11.566;2023-02-12T17:35:33;4.50;99.90
22145;DHT22;11238;48.730;11.566;2023-02-12T17:38:07;4.50;99.90
22145;DHT22;11238;48.730;11.566;2023-02-12T17:40:55;4.50;99.90
22145;DHT22;11238;48.730;11.566;2023-02-12T17:43:22;4.50;99.90
22145;DHT22;11238;48.730;11.566;2023-02-12T17:45:50;4.50;99.90
22145;DHT22;11238;48.730;11.566;2023-02-12T17:48:18;4.50;99.90
22145;DHT22;11238;48.730;11.566;2023-02-12T17:50:53;4.40;99.90
22145;DHT22;11238;48.730;11.566;2023-02-12T17:53:19;4.30;99.90
22145;DHT22;11238;48.730;11.566;2023-02-12T17:55:45;4.30;99.90
22145;DHT22;11238;48.730;11.566;2023-02-12T17:58:11;4.20;99.90
22145;DHT22;11238;48.730;11.566;2023-02-12T18:00:39;4.10;99.90
22145;DHT22;11238;48.730;11.566;2023-02-12T18:03:06;4.10;99.90
22145;DHT22;11238;48.730;11.566;2023-02-12T18:05:31;4.10;99.90
22145;DHT22;11238;48.730;11.566;2023-02-12T18:07:57;4.00;99.90
22145;DHT22;11238;48.730;11.566;2023-02-12T18:10:23;4.00;99.90
22145;DHT22;11238;48.730;11.566;2023-02-12T18:12:49;3.80;99.90
22145;DHT22;11238;48.730;11.566;2023-02-12T18:15:15;3.80;99.90
22145;DHT22;11238;48.730;11.566;2023-02-12T18:17:41;3.80;99.90
22145;DHT22;11238;48.730;11.566;2023-02-12T18:20:09;3.70;99.90
22145;DHT22;11238;48.730;11.566;2023-02-12T18:22:36;3.70;99.90
22145;DHT22;11238;48.730;11.566;2023-02-12T18:25:02;3.60;99.90
22145;DHT22;11238;48.730;11.566;2023-02-12T18:27:28;3.60;99.90
22145;DHT22;11238;48.730;11.566;2023-02-12T18:30:16;3.60;99.90
22145;DHT22;11238;48.730;11.566;2023-02-12T18:32:42;3.50;99.90
22145;DHT22;11238;48.730;11.566;2023-02-12T18:35:08;3.60;99.90
22145;DHT22;11238;48.730;11.566;2023-02-12T18:37:34;3.50;99.90